Time;durP1;ratioP1;P1;durP2;ratioP2;P2;SDS_P1;SDS_P2;PMS_P1;PMS_P2;Temp;Humidity;BMP_temperature;BMP_pressure;BME280_temperature;BME280_humidity;BME280_pressure;Samples;Min_cycle;Max_cycle;Signal;HPM_P1;HPM_P2
2022/09/21 00:00:48;;;;;;;10.32;3.20;;;8.50;99.90;;;;;;5091213;28;20036;-63
2022/09/21 00:03:15;;;;;;;6.40;3.38;;;8.70;99.90;;;;;;5092244;28;20062;-62
2022/09/21 00:05:41;;;;;;;;;;;8.50;99.90;;;;;;5092890;28;20096;-62
2022/09/21 00:08:09;;;;;;;7.32;3.10;;;8.50;99.90;;;;;;5092613;28;20407;-62
2022/09/21 00:10:35;;;;;;;8.60;3.40;;;8.40;99.90;;;;;;5092261;28;20123;-63
2022/09/21 00:13:01;;;;;;;;;;;8.70;99.90;;;;;;5092923;28;20101;-64
2022/09/21 00:15:29;;;;;;;15.07;4.07;;;8.50;99.90;;;;;;5092461;28;19920;-63
2022/09/21 00:17:56;;;;;;;7.35;3.42;;;8.20;99.90;;;;;;5092170;28;20135;-63
2022/09/21 00:20:23;;;;;;;9.63;4.18;;;8.70;99.90;;;;;;5092376;28;20051;-62
2022/09/21 00:22:50;;;;;;;7.68;3.80;;;8.20;99.90;;;;;;5092376;28;20135;-63
2022/09/21 00:25:17;;;;;;;9.20;4.28;;;8.50;99.90;;;;;;5092300;28;20048;-63
2022/09/21 00:27:44;;;;;;;5.28;3.45;;;8.70;99.90;;;;;;5092294;28;20388;-62
2022/09/21 00:30:11;;;;;;;6.28;4.07;;;8.50;99.90;;;;;;5092254;28;20063;-63
2022/09/21 00:32:38;;;;;;;5.35;3.47;;;8.50;99.90;;;;;;5092230;28;20499;-63
2022/09/21 00:35:06;;;;;;;5.55;3.33;;;8.50;99.90;;;;;;5092184;28;20127;-63
2022/09/21 00:37:33;;;;;;;6.03;3.53;;;8.30;99.90;;;;;;5091930;28;20492;-63
2022/09/21 00:39:59;;;;;;;8.27;4.00;;;8.20;99.90;;;;;;5092164;28;20432;-63
2022/09/21 00:42:29;;;;;;;5.57;3.47;;;8.30;99.90;;;;;;5091885;28;20043;-66
2022/09/21 00:44:54;;;;;;;9.45;4.40;;;8.30;99.90;;;;;;5091999;28;20052;-63
2022/09/21 00:47:50;;;;;;;7.68;4.05;;;8.20;99.90;;;;;;5091850;28;20173;-64
2022/09/21 00:50:21;;;;;;;8.70;3.85;;;8.00;99.90;;;;;;5091106;28;20052;-63
2022/09/21 00:52:54;;;;;;;10.15;4.47;;;8.20;99.90;;;;;;5090819;28;20157;-65
2022/09/21 00:55:24;;;;;;;13.18;4.07;;;8.30;99.90;;;;;;5092067;28;20492;-63
2022/09/21 00:57:55;;;;;;;11.00;4.43;;;8.40;99.90;;;;;;5092000;28;20047;-63
2022/09/21 01:00:21;;;;;;;11.25;4.57;;;8.10;99.90;;;;;;5092014;28;20048;-64
2022/09/21 01:02:48;;;;;;;9.13;4.35;;;8.20;99.90;;;;;;5091646;28;20044;-66
2022/09/21 01:05:14;;;;;;;14.18;4.38;;;8.40;99.90;;;;;;5091924;28;20140;-63
2022/09/21 01:07:44;;;;;;;8.63;4.00;;;8.20;99.90;;;;;;5090869;28;20047;-63
2022/09/21 01:10:15;;;;;;;10.50;3.80;;;8.10;99.90;;;;;;5091859;28;20051;-63
2022/09/21 01:13:31;;;;;;;7.90;4.53;;;8.00;99.90;;;;;;5091992;28;20051;-63
2022/09/21 01:16:10;;;;;;;11.48;3.63;;;8.00;99.90;;;;;;5091568;28;20051;-67
2022/09/21 01:19:05;;;;;;;6.22;3.30;;;7.80;99.90;;;;;;5090642;28;20048;-62
2022/09/21 01:21:38;;;;;;;8.85;4.70;;;7.70;99.90;;;;;;5081302;28;20145;-63
2022/09/21 01:24:07;;;;;;;10.15;3.90;;;8.00;99.90;;;;;;5091771;28;20404;-63
2022/09/21 01:27:10;;;;;;;7.20;3.75;;;7.90;99.90;;;;;;5090753;28;20056;-63
2022/09/21 01:29:52;;;;;;;13.18;4.78;;;7.70;99.90;;;;;;5091313;28;20086;-63
2022/09/21 01:32:39;;;;;;;11.30;4.22;;;7.80;99.90;;;;;;5091777;28;20109;-67
2022/09/21 01:35:24;;;;;;;11.73;4.32;;;7.80;99.90;;;;;;5091666;28;20472;-63
2022/09/21 01:38:01;;;;;;;9.30;4.50;;;7.80;99.90;;;;;;5090488;28;20040;-63
2022/09/21 01:40:33;;;;;;;8.20;4.07;;;8.00;99.90;;;;;;5091615;28;20048;-63
2022/09/21 01:43:01;;;;;;;5.07;3.65;;;7.70;99.90;;;;;;5091594;28;20126;-63
2022/09/21 01:45:31;;;;;;;7.90;3.90;;;7.80;99.90;;;;;;5091297;28;20051;-63
2022/09/21 01:48:00;;;;;;;8.48;3.88;;;8.00;99.90;;;;;;5090516;28;20047;-63
2022/09/21 01:50:34;;;;;;;7.38;4.28;;;7.60;99.90;;;;;;5090208;28;20480;-63
2022/09/21 01:53:32;;;;;;;9.90;5.03;;;7.70;99.90;;;;;;5092569;28;20087;-63
2022/09/21 01:56:05;;;;;;;6.03;4.28;;;7.70;99.90;;;;;;5089738;28;20064;-66
2022/09/21 01:59:05;;;;;;;10.85;4.70;;;7.80;99.90;;;;;;5095087;28;20044;-63
2022/09/21 02:01:37;;;;;;;8.23;3.88;;;7.50;99.90;;;;;;5094654;28;20059;-63
2022/09/21 02:04:08;;;;;;;13.95;4.55;;;7.70;99.90;;;;;;5094991;28;20051;-64
2022/09/21 02:06:37;;;;;;;11.73;4.18;;;7.70;99.90;;;;;;5094957;28;20160;-63
2022/09/21 02:09:03;;;;;;;6.97;3.92;;;7.70;99.90;;;;;;5094804;28;20048;-64
2022/09/21 02:11:28;;;;;;;11.25;4.25;;;8.00;99.90;;;;;;5095069;28;20373;-63
2022/09/21 02:13:55;;;;;;;10.50;3.90;;;7.60;99.90;;;;;;5094463;28;20048;-63
2022/09/21 02:16:35;;;;;;;10.25;4.43;;;7.60;99.90;;;;;;5094729;28;20055;-63
2022/09/21 02:19:09;;;;;;;14.32;4.05;;;8.30;99.90;;;;;;5094596;28;20126;-64
2022/09/21 02:21:57;;;;;;;8.75;4.20;;;7.70;99.90;;;;;;5094630;28;20083;-63
2022/09/21 02:24:38;;;;;;;5.65;3.85;;;7.70;99.90;;;;;;5094524;28;20097;-67
2022/09/21 02:27:23;;;;;;;8.40;3.58;;;7.70;99.90;;;;;;5094485;28;20048;-64
2022/09/21 02:30:05;;;;;;;6.82;3.80;;;7.70;99.90;;;;;;5092785;28;20052;-63
2022/09/21 02:32:38;;;;;;;7.25;3.40;;;7.50;99.90;;;;;;5094438;28;20052;-63
2022/09/21 02:35:20;;;;;;;6.05;3.45;;;7.50;99.90;;;;;;5094390;28;20451;-63
2022/09/21 02:37:57;;;;;;;7.82;4.07;;;7.50;99.90;;;;;;5094296;28;20048;-63
2022/09/21 02:40:31;;;;;;;8.68;3.72;;;7.30;99.90;;;;;;5094246;28;20477;-66
2022/09/21 02:43:04;;;;;;;6.03;3.67;;;7.50;99.90;;;;;;5093984;28;20082;-64
2022/09/21 02:45:36;;;;;;;7.13;4.10;;;7.60;99.90;;;;;;5094241;28;20127;-63
2022/09/21 02:48:15;;;;;;;7.05;4.05;;;7.40;99.90;;;;;;5093063;28;20048;-64
2022/09/21 02:50:46;;;;;;;8.00;4.03;;;7.60;99.90;;;;;;5094053;28;20136;-63
2022/09/21 02:53:16;;;;;;;7.90;3.55;;;7.40;99.90;;;;;;5094023;28;20052;-63
2022/09/21 02:55:44;;;;;;;8.73;3.70;;;7.50;99.90;;;;;;5093947;28;20055;-63
2022/09/21 02:58:13;;;;;;;7.07;4.40;;;7.50;99.90;;;;;;5093608;28;20050;-63
2022/09/21 03:00:39;;;;;;;7.45;4.38;;;7.80;99.90;;;;;;5093837;28;20048;-64
2022/09/21 03:03:34;;;;;;;7.38;4.03;;;7.50;99.90;;;;;;5092741;28;20047;-63
2022/09/21 03:06:01;;;;;;;5.03;3.58;;;7.50;99.90;;;;;;5088571;28;20067;-63
2022/09/21 03:08:27;;;;;;;8.75;3.50;;;7.40;99.90;;;;;;5093739;28;20044;-63
2022/09/21 03:10:52;;;;;;;5.72;3.97;;;7.60;99.90;;;;;;5093685;28;20127;-63
2022/09/21 03:13:18;;;;;;;7.10;3.75;;;7.50;99.90;;;;;;5092414;28;20207;-65
2022/09/21 03:15:44;;;;;;;11.32;3.67;;;7.20;99.90;;;;;;5093717;28;20052;-63
2022/09/21 03:18:11;;;;;;;5.53;3.78;;;7.30;99.90;;;;;;5093575;28;20383;-63
2022/09/21 03:20:39;;;;;;;6.30;4.22;;;7.60;99.90;;;;;;5093509;28;20377;-63
2022/09/21 03:23:05;;;;;;;6.43;3.72;;;7.60;99.90;;;;;;5093444;28;20044;-64
2022/09/21 03:25:32;;;;;;;6.88;4.00;;;7.50;99.90;;;;;;5093383;28;20044;-63
2022/09/21 03:27:57;;;;;;;7.35;3.80;;;7.20;99.90;;;;;;5093426;28;20141;-63
2022/09/21 03:30:25;;;;;;;9.38;3.80;;;7.70;99.90;;;;;;5093124;28;20068;-63
2022/09/21 03:32:54;;;;;;;7.90;3.80;;;7.40;99.90;;;;;;5093248;28;20055;-63
2022/09/21 03:35:22;;;;;;;9.68;4.15;;;7.40;99.90;;;;;;5092109;28;20056;-64
2022/09/21 03:37:49;;;;;;;8.40;4.28;;;7.10;99.90;;;;;;5092091;28;20137;-64
2022/09/21 03:40:16;;;;;;;9.82;4.47;;;7.40;99.90;;;;;;5092452;28;20557;-63
2022/09/21 03:42:42;;;;;;;9.65;4.15;;;7.30;99.90;;;;;;5092987;28;20112;-63
2022/09/21 03:45:09;;;;;;;9.88;4.30;;;7.30;99.90;;;;;;5093019;28;20044;-64
2022/09/21 03:47:36;;;;;;;7.07;4.03;;;7.10;99.90;;;;;;5092954;28;20105;-63
2022/09/21 03:50:01;;;;;;;6.40;3.90;;;7.30;99.90;;;;;;5093164;28;20140;-63
2022/09/21 03:52:27;;;;;;;9.07;3.80;;;7.00;99.90;;;;;;5092914;28;20101;-63
2022/09/21 03:54:54;;;;;;;11.75;3.88;;;7.10;99.90;;;;;;5092813;28;20044;-63
2022/09/21 03:57:20;;;;;;;6.47;4.07;;;7.20;99.90;;;;;;5092757;28;20056;-64
2022/09/21 03:59:46;;;;;;;8.65;3.75;;;7.40;99.90;;;;;;5092807;28;20044;-64
2022/09/21 04:02:11;;;;;;;8.32;3.90;;;7.20;99.90;;;;;;5092736;28;20047;-65
2022/09/21 04:04:37;;;;;;;7.10;3.67;;;7.00;99.90;;;;;;5092698;28;20040;-64
2022/09/21 04:07:03;;;;;;;7.00;3.83;;;7.20;99.90;;;;;;5091372;28;20131;-63
2022/09/21 04:09:30;;;;;;;6.28;4.05;;;7.20;99.90;;;;;;5092262;28;20130;-63
2022/09/21 04:11:55;;;;;;;9.45;4.53;;;6.90;99.90;;;;;;5092779;28;20518;-63
2022/09/21 04:14:22;;;;;;;7.80;4.43;;;7.50;99.90;;;;;;5092160;28;20083;-63
2022/09/21 04:16:48;;;;;;;;;;;7.30;99.90;;;;;;5092446;28;20048;-63
2022/09/21 04:19:13;;;;;;;8.93;4.68;;;7.10;99.90;;;;;;5092422;28;19930;-63
2022/09/21 04:21:39;;;;;;;7.97;4.60;;;7.20;99.90;;;;;;5092461;28;20045;-66
2022/09/21 04:24:05;;;;;;;7.55;4.20;;;;;;;;;;5092121;28;20040;-64
2022/09/21 04:26:33;;;;;;;7.25;4.00;;;7.10;99.90;;;;;;5092341;28;20051;-63
2022/09/21 04:28:59;;;;;;;11.80;4.22;;;6.90;99.90;;;;;;5091784;28;20055;-64
2022/09/21 04:31:27;;;;;;;4.78;3.75;;;7.20;99.90;;;;;;5092314;28;20402;-64
2022/09/21 04:33:54;;;;;;;7.43;3.67;;;7.10;99.90;;;;;;5092263;28;20086;-63
2022/09/21 04:36:21;;;;;;;9.48;3.97;;;7.30;99.90;;;;;;5092187;28;20048;-64
2022/09/21 04:38:47;;;;;;;10.68;4.68;;;6.80;99.90;;;;;;5091960;28;20078;-63
2022/09/21 04:41:14;;;;;;;6.85;4.20;;;7.10;99.90;;;;;;5092221;28;20350;-63
2022/09/21 04:43:44;;;;;;;12.38;4.18;;;6.90;99.90;;;;;;5092225;28;20135;-66
2022/09/21 04:46:12;;;;;;;7.78;4.20;;;7.00;99.90;;;;;;5092145;28;20127;-64
2022/09/21 04:48:39;;;;;;;9.80;4.40;;;7.20;99.90;;;;;;5092143;28;20040;-64
2022/09/21 04:51:06;;;;;;;7.93;4.25;;;7.10;99.90;;;;;;5090709;28;20489;-67
2022/09/21 04:53:33;;;;;;;13.43;5.32;;;7.00;99.90;;;;;;5091845;28;20048;-63
2022/09/21 04:55:59;;;;;;;9.65;4.20;;;6.90;99.90;;;;;;5092033;28;20048;-64
2022/09/21 04:58:24;;;;;;;10.55;4.65;;;7.00;99.90;;;;;;5091962;28;20066;-66
2022/09/21 05:00:52;;;;;;;9.70;4.75;;;6.80;99.90;;;;;;5092045;28;20043;-64
2022/09/21 05:03:18;;;;;;;11.60;4.55;;;7.00;99.90;;;;;;5092149;28;20048;-66
2022/09/21 05:05:53;;;;;;;9.00;4.50;;;7.10;99.90;;;;;;5092264;28;20146;-63
2022/09/21 05:10:01;;;;;;;9.43;4.63;;;7.00;99.90;;;;;;5091705;28;20040;-64
2022/09/21 05:11:11;;;;;;;9.25;4.40;;;6.80;99.90;;;;;;5091490;28;20052;-63
2022/09/21 05:13:38;;;;;;;7.60;4.10;;;7.10;99.90;;;;;;5090606;28;20400;-64
2022/09/21 05:16:04;;;;;;;11.27;3.83;;;6.90;99.90;;;;;;5091875;28;20063;-63
2022/09/21 05:18:30;;;;;;;6.40;3.80;;;6.90;99.90;;;;;;5091820;28;20868;-63
2022/09/21 05:20:57;;;;;;;10.98;4.00;;;6.80;99.90;;;;;;5091873;28;20131;-65
2022/09/21 05:23:24;;;;;;;9.07;4.45;;;6.90;99.90;;;;;;5091454;28;20040;-63
2022/09/21 05:25:50;;;;;;;10.07;4.40;;;6.90;99.90;;;;;;5091770;28;20087;-63
2022/09/21 05:28:19;;;;;;;8.23;4.63;;;6.60;99.90;;;;;;5093290;28;20129;-65
2022/09/21 05:30:54;;;;;;;15.05;4.75;;;6.80;99.90;;;;;;5095361;28;20404;-65
2022/09/21 05:33:20;;;;;;;7.47;3.80;;;6.80;99.90;;;;;;5094537;28;20506;-63
2022/09/21 05:36:19;;;;;;;8.20;4.00;;;6.70;99.90;;;;;;5095471;28;20365;-63
2022/09/21 05:38:45;;;;;;;9.43;4.60;;;7.00;99.90;;;;;;5094190;28;20048;-63
2022/09/21 05:41:11;;;;;;;11.63;4.70;;;6.60;99.90;;;;;;5095043;28;20050;-63
2022/09/21 05:43:37;;;;;;;10.98;5.15;;;6.80;99.90;;;;;;5095345;28;20097;-64
2022/09/21 05:46:07;;;;;;;13.75;4.82;;;;;;;;;;5094058;28;20048;-64
2022/09/21 05:48:40;;;;;;;9.68;5.05;;;6.80;99.90;;;;;;5094039;28;20044;-64
2022/09/21 05:51:27;;;;;;;10.52;5.30;;;7.00;99.90;;;;;;5093193;28;20051;-63
2022/09/21 05:54:01;;;;;;;8.07;5.20;;;6.90;99.90;;;;;;5094140;28;20469;-65
2022/09/21 05:56:42;;;;;;;8.27;5.03;;;7.10;99.90;;;;;;5094513;28;20091;-64
2022/09/21 05:59:27;;;;;;;13.18;5.30;;;7.20;99.90;;;;;;5094025;28;20051;-65
2022/09/21 06:02:04;;;;;;;12.52;5.03;;;6.90;99.90;;;;;;5094445;28;20388;-63
2022/09/21 06:04:30;;;;;;;10.57;5.10;;;6.90;99.90;;;;;;5094190;28;20047;-63
2022/09/21 06:06:56;;;;;;;8.75;5.32;;;7.30;99.90;;;;;;5093639;28;20388;-63
2022/09/21 06:09:21;;;;;;;9.73;5.20;;;7.10;99.90;;;;;;5094273;28;20040;-63
2022/09/21 06:11:47;;;;;;;8.77;5.38;;;7.00;99.90;;;;;;5094299;28;20040;-63
2022/09/21 06:14:13;;;;;;;9.43;5.07;;;6.80;99.90;;;;;;5091156;28;20547;-63
2022/09/21 06:16:40;;;;;;;13.20;5.38;;;;;;;;;;5094094;28;20055;-64
2022/09/21 06:19:06;;;;;;;10.20;5.75;;;7.20;99.90;;;;;;5092970;28;20096;-66
2022/09/21 06:21:32;;;;;;;12.57;5.57;;;;;;;;;;5090932;28;20047;-65
2022/09/21 06:23:58;;;;;;;;;;;7.10;99.90;;;;;;5093281;28;20048;-64
2022/09/21 06:26:23;;;;;;;11.20;6.53;;;7.40;99.90;;;;;;5092860;28;20398;-64
2022/09/21 06:28:49;;;;;;;15.48;6.22;;;7.50;99.90;;;;;;5092170;28;20051;-64
2022/09/21 06:31:15;;;;;;;11.55;6.75;;;7.70;99.90;;;;;;5092879;28;20055;-66
2022/09/21 06:33:40;;;;;;;15.45;7.28;;;7.70;99.90;;;;;;5093607;28;20087;-64
2022/09/21 06:36:06;;;;;;;11.77;7.38;;;7.70;99.90;;;;;;5092012;28;20056;-66
2022/09/21 06:38:34;;;;;;;12.43;7.55;;;7.70;99.90;;;;;;5093129;28;20043;-64
2022/09/21 06:41:04;;;;;;;12.85;8.10;;;8.10;99.90;;;;;;5093802;28;20044;-64
2022/09/21 06:43:31;;;;;;;10.15;8.00;;;8.00;99.90;;;;;;5093602;28;20051;-64
2022/09/21 06:45:59;;;;;;;16.33;7.75;;;8.00;99.90;;;;;;5092093;28;20100;-73
2022/09/21 06:48:26;;;;;;;14.00;7.97;;;8.10;99.90;;;;;;5089599;28;20094;-64
2022/09/21 06:50:57;;;;;;;15.80;9.40;;;8.40;99.90;;;;;;5091832;28;20114;-66
2022/09/21 06:53:23;;;;;;;17.35;9.13;;;8.30;99.90;;;;;;5091190;28;20051;-64
2022/09/21 06:55:49;;;;;;;17.88;9.07;;;8.60;99.90;;;;;;5092939;28;20040;-63
2022/09/21 06:58:15;;;;;;;13.57;8.82;;;8.60;99.90;;;;;;5092986;28;20079;-64
2022/09/21 07:00:40;;;;;;;16.73;9.05;;;8.60;99.90;;;;;;5091109;28;20032;-64
2022/09/21 07:03:12;;;;;;;13.85;8.60;;;8.80;99.90;;;;;;5092047;28;20048;-65
2022/09/21 07:05:38;;;;;;;16.52;8.88;;;9.10;99.90;;;;;;5092847;28;20180;-65
2022/09/21 07:08:04;;;;;;;13.93;9.75;;;9.10;99.90;;;;;;5092713;28;20083;-65
2022/09/21 07:10:30;;;;;;;16.15;9.48;;;9.30;99.90;;;;;;5091892;28;20469;-62
2022/09/21 07:13:02;;;;;;;16.02;9.30;;;10.30;99.90;;;;;;5093272;28;20059;-62
2022/09/21 07:15:29;;;;;;;17.85;9.68;;;9.70;99.90;;;;;;5091188;28;20453;-63
2022/09/21 07:17:55;;;;;;;16.88;9.38;;;10.50;99.90;;;;;;5091842;28;20043;-62
2022/09/21 07:20:21;;;;;;;17.20;8.93;;;9.80;99.90;;;;;;5091729;28;20055;-65
2022/09/21 07:22:47;;;;;;;16.70;9.43;;;10.50;99.90;;;;;;5091238;28;20048;-66
2022/09/21 07:25:13;;;;;;;17.45;8.77;;;9.70;99.90;;;;;;5092258;28;20125;-66
2022/09/21 07:27:39;;;;;;;14.15;8.95;;;10.00;99.90;;;;;;5090882;28;20058;-64
2022/09/21 07:30:05;;;;;;;;;;;10.30;99.90;;;;;;5092709;28;20470;-63
2022/09/21 07:32:31;;;;;;;14.00;8.45;;;10.30;99.90;;;;;;5092970;28;19974;-63
2022/09/21 07:34:57;;;;;;;21.00;8.88;;;11.60;99.90;;;;;;5092133;28;20091;-63
2022/09/21 07:37:24;;;;;;;12.90;6.97;;;11.60;99.90;;;;;;5093165;28;20052;-63
2022/09/21 07:39:51;;;;;;;17.33;6.38;;;10.50;99.90;;;;;;5093120;28;20052;-63
2022/09/21 07:42:18;;;;;;;18.80;6.22;;;10.70;99.90;;;;;;5093098;28;20048;-63
2022/09/21 07:44:45;;;;;;;13.82;6.07;;;10.70;99.90;;;;;;5093029;28;20060;-63
2022/09/21 07:47:12;;;;;;;11.93;4.95;;;10.90;99.90;;;;;;5091431;28;20079;-63
2022/09/21 07:49:38;;;;;;;11.48;4.90;;;11.40;99.90;;;;;;5092721;28;20079;-64
2022/09/21 07:52:04;;;;;;;12.68;4.97;;;11.30;99.90;;;;;;5092173;28;20087;-63
2022/09/21 07:54:31;;;;;;;14.98;5.13;;;11.40;99.90;;;;;;5092809;28;20043;-65
2022/09/21 07:59:41;;;;;;;9.98;4.60;;;11.80;99.90;;;;;;5092786;28;20051;-64
2022/09/21 08:02:06;;;;;;;9.60;4.25;;;11.80;99.90;;;;;;5092434;28;20044;-63
2022/09/21 08:04:32;;;;;;;13.32;4.70;;;11.80;99.90;;;;;;5092646;28;20507;-67
2022/09/21 08:06:58;;;;;;;9.10;3.45;;;12.10;99.90;;;;;;5092670;28;20085;-63
2022/09/21 08:09:23;;;;;;;10.82;3.50;;;12.10;99.90;;;;;;5092493;28;20410;-63
2022/09/21 08:11:50;;;;;;;10.95;3.85;;;12.20;99.90;;;;;;5092557;28;20540;-63
2022/09/21 08:14:19;;;;;;;6.85;2.95;;;13.40;99.90;;;;;;5092508;28;20055;-67
2022/09/21 08:16:46;;;;;;;7.45;2.25;;;12.30;99.90;;;;;;5092208;28;20051;-63
2022/09/21 08:19:19;;;;;;;7.38;2.05;;;12.60;99.90;;;;;;5092461;28;20051;-66
2022/09/21 08:21:48;;;;;;;11.15;1.63;;;13.60;99.90;;;;;;5092520;28;20131;-63
2022/09/21 08:24:13;;;;;;;7.75;1.90;;;13.30;99.90;;;;;;5091224;28;20040;-63
2022/09/21 08:26:39;;;;;;;8.68;1.80;;;13.10;99.90;;;;;;5092482;28;20124;-63
2022/09/21 08:29:06;;;;;;;7.43;1.70;;;13.30;99.90;;;;;;5092202;28;20077;-63
2022/09/21 08:31:31;;;;;;;10.57;1.88;;;13.10;99.90;;;;;;5092163;28;20178;-63
2022/09/21 08:33:58;;;;;;;13.18;2.50;;;13.90;99.90;;;;;;5092378;28;20135;-69
2022/09/21 08:36:23;;;;;;;;;;;13.90;99.90;;;;;;5092813;28;20040;-63
2022/09/21 08:38:49;;;;;;;12.30;1.75;;;13.80;99.90;;;;;;5092550;28;19927;-63
2022/09/21 08:41:21;;;;;;;7.22;1.70;;;14.10;99.90;;;;;;5092380;28;20044;-63
2022/09/21 08:44:16;;;;;;;11.23;2.10;;;13.90;99.90;;;;;;5092291;28;20399;-64
2022/09/21 08:46:43;;;;;;;8.68;1.75;;;14.10;99.90;;;;;;5075500;28;20156;-63
2022/09/21 08:49:24;;;;;;;10.00;1.55;;;14.00;99.90;;;;;;5092054;28;20044;-64
2022/09/21 08:51:55;;;;;;;7.15;1.30;;;13.90;99.90;;;;;;5092245;28;20156;-63
2022/09/21 08:54:37;;;;;;;7.18;1.42;;;14.60;99.90;;;;;;5092160;28;20052;-63
2022/09/21 08:57:03;;;;;;;5.95;1.20;;;14.50;99.90;;;;;;5092065;28;20058;-64
2022/09/21 08:59:29;;;;;;;9.07;1.40;;;14.30;99.90;;;;;;5092119;28;20141;-63
2022/09/21 09:02:06;;;;;;;12.20;2.10;;;14.50;99.90;;;;;;5093054;28;20487;-63
2022/09/21 09:05:11;;;;;;;6.90;1.75;;;14.60;99.90;;;;;;5096213;28;20043;-63
2022/09/21 09:08:08;;;;;;;8.93;1.52;;;14.90;99.90;;;;;;5073912;28;20048;-63
2022/09/21 09:10:59;;;;;;;4.40;1.30;;;14.80;99.90;;;;;;5092733;28;20131;-65
2022/09/21 09:13:44;;;;;;;6.78;1.33;;;14.90;99.90;;;;;;5095920;28;20048;-64
2022/09/21 09:16:12;;;;;;;9.57;1.92;;;14.90;99.90;;;;;;5094708;28;20123;-66
2022/09/21 09:18:45;;;;;;;7.90;2.05;;;15.30;99.90;;;;;;5095886;28;20052;-64
2022/09/21 09:21:20;;;;;;;11.43;1.50;;;15.50;99.90;;;;;;5095883;28;20044;-63
2022/09/21 09:23:52;;;;;;;6.13;1.55;;;15.30;99.90;;;;;;5095787;28;20093;-63
2022/09/21 09:26:23;;;;;;;7.15;1.35;;;15.20;99.90;;;;;;5095819;28;20044;-63
2022/09/21 09:29:32;;;;;;;6.07;1.38;;;15.00;99.90;;;;;;5095336;28;20411;-63
2022/09/21 09:32:00;;;;;;;10.43;1.30;;;15.20;99.90;;;;;;5075292;28;20055;-68
2022/09/21 09:34:41;;;;;;;8.32;1.50;;;15.30;99.90;;;;;;5095568;28;20127;-67
2022/09/21 09:37:16;;;;;;;6.93;1.40;;;15.50;99.90;;;;;;5095526;28;20138;-63
2022/09/21 09:39:47;;;;;;;7.57;1.83;;;15.40;99.90;;;;;;5095457;28;20112;-63
2022/09/21 09:43:03;;;;;;;7.18;1.50;;;15.70;99.90;;;;;;5095815;28;20069;-63
2022/09/21 09:45:51;;;;;;;9.57;2.55;;;15.60;99.90;;;;;;5060479;28;20091;-63
2022/09/21 09:48:35;;;;;;;;;;;15.90;99.90;;;;;;5095781;28;20044;-69
2022/09/21 09:51:00;;;;;;;7.10;1.20;;;16.40;99.90;;;;;;5095183;28;20280;-62
2022/09/21 09:53:27;;;;;;;7.22;1.15;;;16.10;99.90;;;;;;5095255;28;20109;-62
2022/09/21 09:55:55;;;;;;;7.45;1.30;;;16.00;99.90;;;;;;5095174;28;20105;-64
2022/09/21 09:58:41;;;;;;;11.70;1.52;;;16.40;99.90;;;;;;5093756;28;20044;-63
2022/09/21 10:01:07;;;;;;;6.77;2.27;;;16.10;99.90;;;;;;5095142;28;20064;-66
2022/09/21 10:03:35;;;;;;;7.32;1.60;;;16.20;99.90;;;;;;5095040;28;20286;-64
2022/09/21 10:06:00;;;;;;;7.15;1.50;;;16.60;99.90;;;;;;5095037;28;20044;-63
2022/09/21 10:08:43;;;;;;;7.60;1.20;;;16.00;99.90;;;;;;5095018;28;20460;-63
2022/09/21 10:11:14;;;;;;;5.70;1.30;;;16.50;99.90;;;;;;5094902;28;20468;-63
2022/09/21 10:13:46;;;;;;;6.35;1.40;;;16.60;99.90;;;;;;5093747;28;20048;-63
2022/09/21 10:16:18;;;;;;;5.30;1.00;;;16.20;99.90;;;;;;5094842;28;20099;-63
2022/09/21 10:18:48;;;;;;;6.70;1.35;;;16.60;99.90;;;;;;5094701;28;20056;-63
2022/09/21 10:21:25;;;;;;;5.43;1.50;;;16.80;99.90;;;;;;5093521;28;20051;-64
2022/09/21 10:24:00;;;;;;;7.38;1.55;;;16.90;99.90;;;;;;5094787;28;20048;-63
2022/09/21 10:26:35;;;;;;;4.68;1.10;;;17.20;99.90;;;;;;5094405;28;20071;-62
2022/09/21 10:29:15;;;;;;;11.60;1.48;;;17.10;99.90;;;;;;5094694;28;20091;-63
2022/09/21 10:31:53;;;;;;;15.57;1.63;;;17.00;99.90;;;;;;5094690;28;20048;-62
2022/09/21 10:34:19;;;;;;;6.53;1.90;;;17.20;99.90;;;;;;5094643;28;20056;-67
2022/09/21 10:36:53;;;;;;;;;;;17.30;99.90;;;;;;5094862;28;20089;-63
2022/09/21 10:39:22;;;;;;;6.00;1.10;;;16.80;99.90;;;;;;5094422;28;19930;-65
2022/09/21 10:41:51;;;;;;;4.45;1.00;;;17.30;99.90;;;;;;5094088;28;20126;-62
2022/09/21 10:44:19;;;;;;;3.05;0.73;;;17.70;99.90;;;;;;5094242;28;20141;-63
2022/09/21 10:46:47;;;;;;;5.55;1.00;;;17.60;99.90;;;;;;5094239;28;20075;-66
2022/09/21 10:49:20;;;;;;;6.85;1.42;;;17.80;99.90;;;;;;5093773;28;20481;-62
2022/09/21 10:51:48;;;;;;;9.05;1.02;;;17.80;99.90;;;;;;5094161;28;20051;-63
2022/09/21 10:54:22;;;;;;;5.78;1.20;;;18.10;99.90;;;;;;5094022;28;20048;-62
2022/09/21 10:56:57;;;;;;;6.30;1.38;;;17.90;99.90;;;;;;5093817;28;20048;-63
2022/09/21 10:59:31;;;;;;;4.80;1.23;;;17.60;99.90;;;;;;5093991;28;20044;-63
2022/09/21 11:01:59;;;;;;;4.47;1.10;;;17.90;99.90;;;;;;5093826;28;20044;-63
2022/09/21 11:04:36;;;;;;;6.57;1.20;;;17.90;99.90;;;;;;5093877;28;20083;-64
2022/09/21 11:07:08;;;;;;;5.43;1.13;;;17.70;99.90;;;;;;5093882;28;20140;-62
2022/09/21 11:09:57;;;;;;;6.75;1.45;;;17.90;99.90;;;;;;5093422;28;20484;-70
2022/09/21 11:13:04;;;;;;;4.93;1.38;;;17.70;99.90;;;;;;5093733;28;20154;-63
2022/09/21 11:15:51;;;;;;;6.18;1.20;;;17.50;99.90;;;;;;5055799;28;20061;-65
2022/09/21 11:18:43;;;;;;;6.82;1.38;;;17.00;99.90;;;;;;5093616;28;20047;-63
2022/09/21 11:21:18;;;;;;;6.43;1.63;;;16.80;99.90;;;;;;5093522;28;20044;-63
2022/09/21 11:24:11;;;;;;;9.35;1.45;;;16.60;99.90;;;;;;5093478;28;20105;-63
2022/09/21 11:26:44;;;;;;;5.03;1.23;;;16.70;99.90;;;;;;5093424;28;20113;-63
2022/09/21 11:29:28;;;;;;;6.55;1.50;;;16.50;99.90;;;;;;5093144;28;20063;-64
2022/09/21 11:32:36;;;;;;;10.57;1.20;;;16.50;99.90;;;;;;5093308;28;20044;-64
2022/09/21 11:35:08;;;;;;;;;;;16.40;99.90;;;;;;5073638;28;20108;-63
2022/09/21 11:37:48;;;;;;;7.22;1.15;;;16.00;99.90;;;;;;5093275;28;19920;-63
2022/09/21 11:40:41;;;;;;;8.88;1.08;;;16.40;99.90;;;;;;5092877;28;20474;-63
2022/09/21 11:43:26;;;;;;;7.22;1.23;;;16.20;99.90;;;;;;5092853;28;20515;-63
2022/09/21 11:46:10;;;;;;;7.97;1.63;;;16.60;99.90;;;;;;5091882;28;20040;-63
2022/09/21 11:49:02;;;;;;;4.22;1.00;;;16.30;99.90;;;;;;5092682;28;20429;-63
2022/09/21 11:51:47;;;;;;;5.68;1.40;;;16.40;99.90;;;;;;5092850;28;20554;-63
2022/09/21 11:54:35;;;;;;;6.35;1.90;;;16.70;99.90;;;;;;5092690;28;20133;-63
2022/09/21 11:57:42;;;;;;;8.68;1.30;;;16.90;99.90;;;;;;5092804;28;20121;-63
2022/09/21 12:00:18;;;;;;;4.10;1.17;;;16.70;99.90;;;;;;5078396;28;20071;-62
2022/09/21 12:03:01;;;;;;;7.90;1.15;;;17.00;99.90;;;;;;5092842;28;20137;-63
2022/09/21 12:05:56;;;;;;;5.20;1.17;;;16.90;99.90;;;;;;5092650;28;20096;-63
2022/09/21 12:08:44;;;;;;;7.72;1.45;;;16.90;99.90;;;;;;5072165;28;20048;-62
2022/09/21 12:11:30;;;;;;;4.65;1.15;;;16.70;99.90;;;;;;5092642;28;20625;-65
2022/09/21 12:14:21;;;;;;;5.93;1.33;;;17.10;99.90;;;;;;5092777;28;20048;-62
2022/09/21 12:16:59;;;;;;;7.75;1.40;;;17.10;99.90;;;;;;5092663;28;20044;-63
2022/09/21 12:19:42;;;;;;;5.57;1.08;;;17.50;99.90;;;;;;5092614;28;20044;-62
2022/09/21 12:22:16;;;;;;;8.98;1.23;;;17.50;99.90;;;;;;5092348;28;20044;-62
2022/09/21 12:24:50;;;;;;;7.10;1.40;;;17.90;99.90;;;;;;5092730;28;20123;-62
2022/09/21 12:27:15;;;;;;;4.22;1.17;;;17.90;99.90;;;;;;5092428;28;20510;-67
2022/09/21 12:29:46;;;;;;;6.40;1.58;;;17.70;99.90;;;;;;5092191;28;20066;-70
2022/09/21 12:32:24;;;;;;;4.35;1.27;;;17.80;99.90;;;;;;5091415;28;20430;-63
2022/09/21 12:34:59;;;;;;;5.88;1.42;;;18.00;99.90;;;;;;5092357;28;20055;-63
2022/09/21 12:37:39;;;;;;;5.35;1.27;;;17.50;99.90;;;;;;5091565;28;20468;-63
2022/09/21 12:40:23;;;;;;;5.38;1.13;;;17.90;99.90;;;;;;5092613;28;20165;-63
2022/09/21 12:43:02;;;;;;;5.63;0.93;;;17.60;99.90;;;;;;5092334;28;20214;-63
2022/09/21 12:45:44;;;;;;;9.00;1.30;;;18.20;99.90;;;;;;5092138;28;20052;-63
2022/09/21 12:48:22;;;;;;;3.63;1.40;;;18.40;99.90;;;;;;5092175;28;20472;-62
2022/09/21 12:50:50;;;;;;;4.80;1.02;;;18.40;99.90;;;;;;5092114;28;20084;-63
2022/09/21 12:53:19;;;;;;;7.55;1.10;;;18.30;99.90;;;;;;5091772;28;20047;-64
2022/09/21 12:56:02;;;;;;;2.75;1.00;;;19.10;99.90;;;;;;5092116;28;20040;-64
2022/09/21 12:58:37;;;;;;;5.13;1.10;;;19.10;99.90;;;;;;5092083;28;20048;-64
2022/09/21 13:01:25;;;;;;;3.60;1.02;;;18.60;99.90;;;;;;5092126;28;20079;-66
2022/09/21 13:04:11;;;;;;;5.75;1.45;;;18.20;99.90;;;;;;5092169;28;20846;-63
2022/09/21 13:06:37;;;;;;;;;;;18.10;99.90;;;;;;5090977;28;20391;-64
2022/09/21 13:09:04;;;;;;;7.83;1.50;;;17.80;99.90;;;;;;5092084;28;19924;-63
2022/09/21 13:11:32;;;;;;;12.32;3.00;;;18.20;99.90;;;;;;5091756;28;20044;-63
2022/09/21 13:14:01;;;;;;;2.90;0.90;;;18.30;99.90;;;;;;5091985;28;20048;-64
2022/09/21 13:16:31;;;;;;;6.07;1.10;;;18.00;99.90;;;;;;5091882;28;20123;-63
2022/09/21 13:19:03;;;;;;;7.03;1.67;;;18.00;99.90;;;;;;5091850;28;20044;-63
2022/09/21 13:21:32;;;;;;;3.15;1.00;;;17.80;99.90;;;;;;5091215;28;20492;-66
2022/09/21 13:24:04;;;;;;;5.93;1.08;;;18.20;99.90;;;;;;5092198;28;20091;-64